sensor_id;sensor_type;location;lat;lon;timestamp;P1;durP1;ratioP1;P2;durP2;ratioP2
34571;SDS011;20808;48.974;8.452;2022-11-20T00:00:15;25.30;;;14.47;;
34571;SDS011;20808;48.974;8.452;2022-11-20T00:02:43;23.60;;;13.77;;
34571;SDS011;20808;48.974;8.452;2022-11-20T00:05:09;23.40;;;14.80;;
34571;SDS011;20808;48.974;8.452;2022-11-20T00:07:36;27.10;;;15.13;;
34571;SDS011;20808;48.974;8.452;2022-11-20T00:10:03;26.27;;;14.50;;
34571;SDS011;20808;48.974;8.452;2022-11-20T00:12:31;27.00;;;15.00;;
34571;SDS011;20808;48.974;8.452;2022-11-20T00:14:59;28.37;;;15.20;;
34571;SDS011;20808;48.974;8.452;2022-11-20T00:17:26;28.80;;;16.60;;
34571;SDS011;20808;48.974;8.452;2022-11-20T00:19:53;31.87;;;17.23;;
34571;SDS011;20808;48.974;8.452;2022-11-20T00:22:20;32.10;;;18.00;;
34571;SDS011;20808;48.974;8.452;2022-11-20T00:24:47;33.00;;;17.90;;
34571;SDS011;20808;48.974;8.452;2022-11-20T00:27:14;30.37;;;16.63;;
34571;SDS011;20808;48.974;8.452;2022-11-20T00:29:40;26.60;;;16.03;;
34571;SDS011;20808;48.974;8.452;2022-11-20T00:32:09;30.90;;;16.93;;
34571;SDS011;20808;48.974;8.452;2022-11-20T00:34:35;30.17;;;17.70;;
34571;SDS011;20808;48.974;8.452;2022-11-20T00:37:02;30.80;;;16.67;;
34571;SDS011;20808;48.974;8.452;2022-11-20T00:39:29;33.63;;;17.60;;
34571;SDS011;20808;48.974;8.452;2022-11-20T00:41:56;36.80;;;18.07;;
34571;SDS011;20808;48.974;8.452;2022-11-20T00:44:23;32.20;;;17.90;;
34571;SDS011;20808;48.974;8.452;2022-11-20T00:46:50;36.27;;;17.87;;
34571;SDS011;20808;48.974;8.452;2022-11-20T00:49:18;31.93;;;18.17;;
34571;SDS011;20808;48.974;8.452;2022-11-20T00:51:45;36.47;;;18.97;;
34571;SDS011;20808;48.974;8.452;2022-11-20T00:54:11;35.03;;;18.17;;
34571;SDS011;20808;48.974;8.452;2022-11-20T00:56:38;33.83;;;18.57;;
34571;SDS011;20808;48.974;8.452;2022-11-20T00:59:05;34.23;;;18.60;;
34571;SDS011;20808;48.974;8.452;2022-11-20T01:01:32;27.30;;;16.30;;
34571;SDS011;20808;48.974;8.452;2022-11-20T01:03:59;30.20;;;16.80;;
34571;SDS011;20808;48.974;8.452;2022-11-20T01:06:29;28.90;;;16.27;;
34571;SDS011;20808;48.974;8.452;2022-11-20T01:08:58;26.13;;;15.57;;
34571;SDS011;20808;48.974;8.452;2022-11-20T01:11:27;32.03;;;18.43;;
34571;SDS011;20808;48.974;8.452;2022-11-20T01:13:55;32.40;;;17.57;;
34571;SDS011;20808;48.974;8.452;2022-11-20T01:16:24;31.63;;;17.17;;
34571;SDS011;20808;48.974;8.452;2022-11-20T01:18:53;29.77;;;16.80;;
34571;SDS011;20808;48.974;8.452;2022-11-20T01:21:23;31.33;;;17.00;;
34571;SDS011;20808;48.974;8.452;2022-11-20T01:23:52;30.80;;;16.50;;
34571;SDS011;20808;48.974;8.452;2022-11-20T01:26:20;31.13;;;16.40;;
34571;SDS011;20808;48.974;8.452;2022-11-20T01:28:49;32.30;;;17.90;;
34571;SDS011;20808;48.974;8.452;2022-11-20T01:31:17;30.20;;;16.17;;
34571;SDS011;20808;48.974;8.452;2022-11-20T01:33:46;27.63;;;16.20;;
34571;SDS011;20808;48.974;8.452;2022-11-20T01:36:14;29.77;;;16.23;;
34571;SDS011;20808;48.974;8.452;2022-11-20T01:38:42;30.73;;;17.17;;
34571;SDS011;20808;48.974;8.452;2022-11-20T01:41:11;26.73;;;14.93;;
34571;SDS011;20808;48.974;8.452;2022-11-20T01:44:01;25.80;;;15.60;;
34571;SDS011;20808;48.974;8.452;2022-11-20T01:46:28;29.03;;;17.10;;
34571;SDS011;20808;48.974;8.452;2022-11-20T01:48:56;30.90;;;15.80;;
34571;SDS011;20808;48.974;8.452;2022-11-20T01:51:27;26.10;;;15.07;;
34571;SDS011;20808;48.974;8.452;2022-11-20T01:53:59;27.60;;;14.60;;
34571;SDS011;20808;48.974;8.452;2022-11-20T01:56:30;29.83;;;15.63;;
34571;SDS011;20808;48.974;8.452;2022-11-20T01:59:00;24.23;;;13.73;;
34571;SDS011;20808;48.974;8.452;2022-11-20T02:01:30;27.70;;;15.07;;
34571;SDS011;20808;48.974;8.452;2022-11-20T02:03:57;22.63;;;14.70;;
34571;SDS011;20808;48.974;8.452;2022-11-20T02:06:25;21.30;;;13.80;;
34571;SDS011;20808;48.974;8.452;2022-11-20T02:08:54;24.67;;;13.87;;
34571;SDS011;20808;48.974;8.452;2022-11-20T02:11:21;23.43;;;13.10;;
34571;SDS011;20808;48.974;8.452;2022-11-20T02:13:50;22.77;;;12.37;;
34571;SDS011;20808;48.974;8.452;2022-11-20T02:16:17;25.13;;;13.17;;
34571;SDS011;20808;48.974;8.452;2022-11-20T02:18:47;18.83;;;12.60;;
34571;SDS011;20808;48.974;8.452;2022-11-20T02:21:20;15.00;;;10.37;;
34571;SDS011;20808;48.974;8.452;2022-11-20T02:24:02;14.87;;;9.67;;
34571;SDS011;20808;48.974;8.452;2022-11-20T02:26:32;17.63;;;9.70;;
34571;SDS011;20808;48.974;8.452;2022-11-20T02:29:02;16.50;;;9.03;;
34571;SDS011;20808;48.974;8.452;2022-11-20T02:31:35;16.53;;;9.73;;
34571;SDS011;20808;48.974;8.452;2022-11-20T02:34:03;14.67;;;9.47;;
34571;SDS011;20808;48.974;8.452;2022-11-20T02:36:30;14.20;;;8.77;;
34571;SDS011;20808;48.974;8.452;2022-11-20T02:39:00;13.50;;;8.20;;
34571;SDS011;20808;48.974;8.452;2022-11-20T02:41:32;13.67;;;8.80;;
34571;SDS011;20808;48.974;8.452;2022-11-20T02:44:00;13.00;;;7.80;;
34571;SDS011;20808;48.974;8.452;2022-11-20T02:46:28;15.40;;;8.07;;
34571;SDS011;20808;48.974;8.452;2022-11-20T02:48:56;15.53;;;9.13;;
34571;SDS011;20808;48.974;8.452;2022-11-20T02:51:23;11.00;;;7.93;;
34571;SDS011;20808;48.974;8.452;2022-11-20T02:53:50;13.53;;;7.90;;
34571;SDS011;20808;48.974;8.452;2022-11-20T02:56:17;16.57;;;7.47;;
34571;SDS011;20808;48.974;8.452;2022-11-20T02:58:45;13.73;;;7.40;;
34571;SDS011;20808;48.974;8.452;2022-11-20T03:01:12;10.53;;;6.73;;
34571;SDS011;20808;48.974;8.452;2022-11-20T03:03:39;11.27;;;7.27;;
34571;SDS011;20808;48.974;8.452;2022-11-20T03:06:06;10.83;;;6.33;;
34571;SDS011;20808;48.974;8.452;2022-11-20T03:08:33;11.27;;;6.73;;
34571;SDS011;20808;48.974;8.452;2022-11-20T03:11:03;9.37;;;6.50;;
34571;SDS011;20808;48.974;8.452;2022-11-20T03:13:33;12.93;;;6.50;;
34571;SDS011;20808;48.974;8.452;2022-11-20T03:16:05;15.40;;;6.13;;
34571;SDS011;20808;48.974;8.452;2022-11-20T03:18:34;9.17;;;6.40;;
34571;SDS011;20808;48.974;8.452;2022-11-20T03:21:01;10.83;;;5.80;;
34571;SDS011;20808;48.974;8.452;2022-11-20T03:23:28;7.73;;;5.60;;
34571;SDS011;20808;48.974;8.452;2022-11-20T03:26:06;8.50;;;5.53;;
34571;SDS011;20808;48.974;8.452;2022-11-20T03:28:34;10.13;;;5.57;;
34571;SDS011;20808;48.974;8.452;2022-11-20T03:31:05;8.40;;;5.37;;
34571;SDS011;20808;48.974;8.452;2022-11-20T03:33:37;13.73;;;5.33;;
34571;SDS011;20808;48.974;8.452;2022-11-20T03:36:05;13.90;;;5.57;;
34571;SDS011;20808;48.974;8.452;2022-11-20T03:38:34;10.43;;;5.47;;
34571;SDS011;20808;48.974;8.452;2022-11-20T03:41:01;10.70;;;5.03;;
34571;SDS011;20808;48.974;8.452;2022-11-20T03:43:29;7.57;;;5.07;;
34571;SDS011;20808;48.974;8.452;2022-11-20T03:45:56;6.23;;;5.10;;
34571;SDS011;20808;48.974;8.452;2022-11-20T03:48:25;7.70;;;5.20;;
34571;SDS011;20808;48.974;8.452;2022-11-20T03:50:52;7.77;;;5.60;;
34571;SDS011;20808;48.974;8.452;2022-11-20T03:53:19;6.67;;;4.90;;
34571;SDS011;20808;48.974;8.452;2022-11-20T03:55:50;6.37;;;4.93;;
34571;SDS011;20808;48.974;8.452;2022-11-20T03:58:17;9.90;;;5.33;;
34571;SDS011;20808;48.974;8.452;2022-11-20T04:00:44;7.63;;;4.70;;
34571;SDS011;20808;48.974;8.452;2022-11-20T04:03:11;7.93;;;5.23;;
34571;SDS011;20808;48.974;8.452;2022-11-20T04:05:39;6.30;;;4.33;;
34571;SDS011;20808;48.974;8.452;2022-11-20T04:08:06;8.70;;;5.40;;
34571;SDS011;20808;48.974;8.452;2022-11-20T04:10:33;7.30;;;4.50;;
34571;SDS011;20808;48.974;8.452;2022-11-20T04:12:59;7.53;;;5.63;;
34571;SDS011;20808;48.974;8.452;2022-11-20T04:15:26;13.17;;;4.67;;
34571;SDS011;20808;48.974;8.452;2022-11-20T04:17:53;6.33;;;4.60;;
34571;SDS011;20808;48.974;8.452;2022-11-20T04:20:20;6.67;;;4.50;;
34571;SDS011;20808;48.974;8.452;2022-11-20T04:22:48;6.17;;;4.50;;
34571;SDS011;20808;48.974;8.452;2022-11-20T04:25:15;7.17;;;4.73;;
34571;SDS011;20808;48.974;8.452;2022-11-20T04:27:42;9.33;;;5.50;;
34571;SDS011;20808;48.974;8.452;2022-11-20T04:30:10;9.20;;;5.70;;
34571;SDS011;20808;48.974;8.452;2022-11-20T04:32:38;7.60;;;4.57;;
34571;SDS011;20808;48.974;8.452;2022-11-20T04:35:05;6.67;;;5.17;;
34571;SDS011;20808;48.974;8.452;2022-11-20T04:37:32;8.53;;;5.83;;
34571;SDS011;20808;48.974;8.452;2022-11-20T04:40:00;8.60;;;5.53;;
34571;SDS011;20808;48.974;8.452;2022-11-20T04:42:27;10.53;;;5.47;;
34571;SDS011;20808;48.974;8.452;2022-11-20T04:44:54;7.23;;;4.50;;
34571;SDS011;20808;48.974;8.452;2022-11-20T04:47:21;9.57;;;4.80;;
34571;SDS011;20808;48.974;8.452;2022-11-20T04:49:48;7.80;;;4.77;;
34571;SDS011;20808;48.974;8.452;2022-11-20T04:52:15;8.17;;;5.13;;
34571;SDS011;20808;48.974;8.452;2022-11-20T04:54:41;9.13;;;5.37;;
34571;SDS011;20808;48.974;8.452;2022-11-20T04:57:10;5.80;;;4.67;;
34571;SDS011;20808;48.974;8.452;2022-11-20T04:59:38;7.07;;;5.37;;
34571;SDS011;20808;48.974;8.452;2022-11-20T05:02:05;8.93;;;4.87;;
34571;SDS011;20808;48.974;8.452;2022-11-20T05:04:32;7.63;;;4.83;;
34571;SDS011;20808;48.974;8.452;2022-11-20T05:06:59;14.03;;;4.77;;
34571;SDS011;20808;48.974;8.452;2022-11-20T05:09:26;7.77;;;5.00;;
34571;SDS011;20808;48.974;8.452;2022-11-20T05:11:53;6.00;;;4.67;;
34571;SDS011;20808;48.974;8.452;2022-11-20T05:14:21;8.80;;;5.03;;
34571;SDS011;20808;48.974;8.452;2022-11-20T05:16:48;6.07;;;4.53;;
34571;SDS011;20808;48.974;8.452;2022-11-20T05:19:15;5.93;;;4.27;;
34571;SDS011;20808;48.974;8.452;2022-11-20T05:21:42;7.90;;;4.00;;
34571;SDS011;20808;48.974;8.452;2022-11-20T05:24:09;7.30;;;4.00;;
34571;SDS011;20808;48.974;8.452;2022-11-20T05:26:36;9.63;;;4.17;;
34571;SDS011;20808;48.974;8.452;2022-11-20T05:29:03;4.80;;;3.57;;
34571;SDS011;20808;48.974;8.452;2022-11-20T05:31:31;5.60;;;3.43;;
34571;SDS011;20808;48.974;8.452;2022-11-20T05:33:58;4.60;;;3.67;;
34571;SDS011;20808;48.974;8.452;2022-11-20T05:36:25;6.73;;;3.77;;
34571;SDS011;20808;48.974;8.452;2022-11-20T05:38:52;10.87;;;3.90;;
34571;SDS011;20808;48.974;8.452;2022-11-20T05:41:19;5.97;;;3.50;;
34571;SDS011;20808;48.974;8.452;2022-11-20T05:43:47;6.53;;;3.73;;
34571;SDS011;20808;48.974;8.452;2022-11-20T05:46:16;5.10;;;3.20;;
34571;SDS011;20808;48.974;8.452;2022-11-20T05:48:45;3.60;;;3.03;;
34571;SDS011;20808;48.974;8.452;2022-11-20T05:51:14;3.57;;;2.97;;
34571;SDS011;20808;48.974;8.452;2022-11-20T05:53:43;4.07;;;3.20;;
34571;SDS011;20808;48.974;8.452;2022-11-20T05:56:11;3.67;;;2.73;;
34571;SDS011;20808;48.974;8.452;2022-11-20T05:58:39;4.27;;;3.13;;
34571;SDS011;20808;48.974;8.452;2022-11-20T06:01:07;6.47;;;3.13;;
34571;SDS011;20808;48.974;8.452;2022-11-20T06:03:35;4.47;;;3.00;;
34571;SDS011;20808;48.974;8.452;2022-11-20T06:06:04;4.10;;;2.70;;
34571;SDS011;20808;48.974;8.452;2022-11-20T06:08:32;5.53;;;2.90;;
34571;SDS011;20808;48.974;8.452;2022-11-20T06:11:02;4.87;;;3.20;;
34571;SDS011;20808;48.974;8.452;2022-11-20T06:13:30;5.10;;;3.17;;
34571;SDS011;20808;48.974;8.452;2022-11-20T06:15:58;5.60;;;3.17;;
34571;SDS011;20808;48.974;8.452;2022-11-20T06:18:25;3.10;;;2.73;;
34571;SDS011;20808;48.974;8.452;2022-11-20T06:20:59;7.40;;;3.20;;
34571;SDS011;20808;48.974;8.452;2022-11-20T06:23:29;2.80;;;2.27;;
34571;SDS011;20808;48.974;8.452;2022-11-20T06:25:56;3.60;;;2.70;;
34571;SDS011;20808;48.974;8.452;2022-11-20T06:28:26;5.63;;;3.10;;
34571;SDS011;20808;48.974;8.452;2022-11-20T06:30:53;2.80;;;2.50;;
34571;SDS011;20808;48.974;8.452;2022-11-20T06:33:21;3.43;;;2.60;;
34571;SDS011;20808;48.974;8.452;2022-11-20T06:35:47;4.27;;;3.13;;
34571;SDS011;20808;48.974;8.452;2022-11-20T06:38:14;3.70;;;2.90;;
34571;SDS011;20808;48.974;8.452;2022-11-20T06:40:43;7.17;;;2.63;;
34571;SDS011;20808;48.974;8.452;2022-11-20T06:43:10;3.17;;;2.60;;
34571;SDS011;20808;48.974;8.452;2022-11-20T06:45:36;6.30;;;2.77;;
34571;SDS011;20808;48.974;8.452;2022-11-20T06:48:04;3.50;;;2.87;;
34571;SDS011;20808;48.974;8.452;2022-11-20T06:50:31;4.13;;;2.57;;
34571;SDS011;20808;48.974;8.452;2022-11-20T06:53:00;3.00;;;2.40;;
34571;SDS011;20808;48.974;8.452;2022-11-20T06:55:28;3.57;;;2.23;;
34571;SDS011;20808;48.974;8.452;2022-11-20T06:57:56;3.53;;;2.60;;
34571;SDS011;20808;48.974;8.452;2022-11-20T07:00:23;3.50;;;2.33;;
34571;SDS011;20808;48.974;8.452;2022-11-20T07:02:50;3.40;;;2.37;;
34571;SDS011;20808;48.974;8.452;2022-11-20T07:05:17;25.30;;;13.63;;
34571;SDS011;20808;48.974;8.452;2022-11-20T07:07:44;50.43;;;27.47;;
34571;SDS011;20808;48.974;8.452;2022-11-20T07:10:11;22.90;;;12.53;;
34571;SDS011;20808;48.974;8.452;2022-11-20T07:12:38;12.57;;;7.90;;
34571;SDS011;20808;48.974;8.452;2022-11-20T07:15:07;3.53;;;2.50;;
34571;SDS011;20808;48.974;8.452;2022-11-20T07:17:35;4.90;;;2.07;;
34571;SDS011;20808;48.974;8.452;2022-11-20T07:20:02;4.70;;;2.87;;
34571;SDS011;20808;48.974;8.452;2022-11-20T07:22:29;2.17;;;1.90;;
34571;SDS011;20808;48.974;8.452;2022-11-20T07:24:56;4.07;;;2.87;;
34571;SDS011;20808;48.974;8.452;2022-11-20T07:27:23;3.23;;;2.17;;
34571;SDS011;20808;48.974;8.452;2022-11-20T07:29:49;4.00;;;2.10;;
34571;SDS011;20808;48.974;8.452;2022-11-20T07:32:18;3.27;;;2.97;;
34571;SDS011;20808;48.974;8.452;2022-11-20T07:34:44;5.73;;;2.20;;
34571;SDS011;20808;48.974;8.452;2022-11-20T07:37:11;4.83;;;3.87;;
34571;SDS011;20808;48.974;8.452;2022-11-20T07:39:38;3.47;;;2.00;;
34571;SDS011;20808;48.974;8.452;2022-11-20T07:42:06;5.00;;;2.93;;
34571;SDS011;20808;48.974;8.452;2022-11-20T07:44:33;5.80;;;3.10;;
34571;SDS011;20808;48.974;8.452;2022-11-20T07:47:00;14.63;;;11.40;;
34571;SDS011;20808;48.974;8.452;2022-11-20T07:49:28;3.20;;;2.43;;
34571;SDS011;20808;48.974;8.452;2022-11-20T07:51:55;5.60;;;2.30;;
34571;SDS011;20808;48.974;8.452;2022-11-20T07:54:22;3.00;;;2.43;;
34571;SDS011;20808;48.974;8.452;2022-11-20T07:56:49;3.20;;;2.00;;
34571;SDS011;20808;48.974;8.452;2022-11-20T07:59:16;4.10;;;2.70;;
34571;SDS011;20808;48.974;8.452;2022-11-20T08:01:43;3.30;;;2.73;;
34571;SDS011;20808;48.974;8.452;2022-11-20T08:04:10;4.03;;;2.77;;
34571;SDS011;20808;48.974;8.452;2022-11-20T08:06:38;4.80;;;2.80;;
34571;SDS011;20808;48.974;8.452;2022-11-20T08:09:05;2.90;;;2.50;;
34571;SDS011;20808;48.974;8.452;2022-11-20T08:11:32;5.17;;;2.77;;
34571;SDS011;20808;48.974;8.452;2022-11-20T08:14:16;4.00;;;2.90;;
34571;SDS011;20808;48.974;8.452;2022-11-20T08:16:43;2.90;;;2.27;;
34571;SDS011;20808;48.974;8.452;2022-11-20T08:19:11;3.13;;;2.60;;
34571;SDS011;20808;48.974;8.452;2022-11-20T08:21:40;5.63;;;2.60;;
34571;SDS011;20808;48.974;8.452;2022-11-20T08:24:07;3.60;;;2.80;;
34571;SDS011;20808;48.974;8.452;2022-11-20T08:26:35;8.90;;;2.60;;
34571;SDS011;20808;48.974;8.452;2022-11-20T08:29:03;3.87;;;2.53;;
34571;SDS011;20808;48.974;8.452;2022-11-20T08:31:30;3.67;;;2.60;;
34571;SDS011;20808;48.974;8.452;2022-11-20T08:33:58;5.67;;;3.03;;
34571;SDS011;20808;48.974;8.452;2022-11-20T08:36:25;3.13;;;1.87;;
34571;SDS011;20808;48.974;8.452;2022-11-20T08:38:53;5.60;;;2.83;;
34571;SDS011;20808;48.974;8.452;2022-11-20T08:41:21;4.07;;;3.47;;
34571;SDS011;20808;48.974;8.452;2022-11-20T08:43:52;5.03;;;4.10;;
34571;SDS011;20808;48.974;8.452;2022-11-20T08:46:21;4.30;;;3.30;;
34571;SDS011;20808;48.974;8.452;2022-11-20T08:48:49;4.60;;;3.20;;
34571;SDS011;20808;48.974;8.452;2022-11-20T08:51:17;3.93;;;2.90;;
34571;SDS011;20808;48.974;8.452;2022-11-20T08:53:44;8.53;;;3.50;;
34571;SDS011;20808;48.974;8.452;2022-11-20T08:56:14;3.60;;;2.80;;
34571;SDS011;20808;48.974;8.452;2022-11-20T08:58:41;4.97;;;3.00;;
34571;SDS011;20808;48.974;8.452;2022-11-20T09:01:08;5.57;;;3.23;;
34571;SDS011;20808;48.974;8.452;2022-11-20T09:03:36;6.20;;;4.10;;
34571;SDS011;20808;48.974;8.452;2022-11-20T09:06:03;4.13;;;3.10;;
34571;SDS011;20808;48.974;8.452;2022-11-20T09:08:32;4.27;;;3.20;;
34571;SDS011;20808;48.974;8.452;2022-11-20T09:10:59;3.10;;;2.77;;
34571;SDS011;20808;48.974;8.452;2022-11-20T09:13:28;4.90;;;3.50;;
34571;SDS011;20808;48.974;8.452;2022-11-20T09:15:56;5.90;;;3.13;;
34571;SDS011;20808;48.974;8.452;2022-11-20T09:18:24;6.53;;;3.67;;
34571;SDS011;20808;48.974;8.452;2022-11-20T09:20:55;3.37;;;3.07;;
34571;SDS011;20808;48.974;8.452;2022-11-20T09:23:22;4.20;;;3.37;;
34571;SDS011;20808;48.974;8.452;2022-11-20T09:25:50;7.53;;;3.63;;
34571;SDS011;20808;48.974;8.452;2022-11-20T09:28:17;8.00;;;3.83;;
34571;SDS011;20808;48.974;8.452;2022-11-20T09:30:46;4.50;;;2.90;;
34571;SDS011;20808;48.974;8.452;2022-11-20T09:33:13;6.33;;;4.03;;
34571;SDS011;20808;48.974;8.452;2022-11-20T09:35:40;7.13;;;4.37;;
34571;SDS011;20808;48.974;8.452;2022-11-20T09:38:08;6.83;;;3.83;;
34571;SDS011;20808;48.974;8.452;2022-11-20T09:40:36;7.23;;;3.87;;
34571;SDS011;20808;48.974;8.452;2022-11-20T09:43:07;10.33;;;3.63;;
34571;SDS011;20808;48.974;8.452;2022-11-20T09:45:41;5.93;;;4.00;;
34571;SDS011;20808;48.974;8.452;2022-11-20T09:48:25;9.10;;;4.13;;
34571;SDS011;20808;48.974;8.452;2022-11-20T09:51:16;5.40;;;4.33;;
34571;SDS011;20808;48.974;8.452;2022-11-20T09:53:55;8.00;;;4.60;;
34571;SDS011;20808;48.974;8.452;2022-11-20T09:56:29;5.80;;;4.13;;
34571;SDS011;20808;48.974;8.452;2022-11-20T09:58:59;11.13;;;10.00;;
34571;SDS011;20808;48.974;8.452;2022-11-20T10:01:33;7.87;;;5.33;;
34571;SDS011;20808;48.974;8.452;2022-11-20T10:04:03;8.60;;;5.20;;
34571;SDS011;20808;48.974;8.452;2022-11-20T10:06:37;7.77;;;5.37;;
34571;SDS011;20808;48.974;8.452;2022-11-20T10:09:14;5.83;;;4.53;;
34571;SDS011;20808;48.974;8.452;2022-11-20T10:11:48;10.40;;;5.00;;
34571;SDS011;20808;48.974;8.452;2022-11-20T10:14:23;7.50;;;5.17;;
34571;SDS011;20808;48.974;8.452;2022-11-20T10:17:01;8.20;;;4.80;;
34571;SDS011;20808;48.974;8.452;2022-11-20T10:19:38;10.33;;;6.00;;
34571;SDS011;20808;48.974;8.452;2022-11-20T10:22:30;9.27;;;5.40;;
34571;SDS011;20808;48.974;8.452;2022-11-20T10:25:11;15.73;;;7.87;;
34571;SDS011;20808;48.974;8.452;2022-11-20T10:27:53;9.30;;;5.37;;
34571;SDS011;20808;48.974;8.452;2022-11-20T10:30:34;8.57;;;5.87;;
34571;SDS011;20808;48.974;8.452;2022-11-20T10:33:11;9.30;;;5.87;;
34571;SDS011;20808;48.974;8.452;2022-11-20T10:35:42;5.67;;;4.80;;
34571;SDS011;20808;48.974;8.452;2022-11-20T10:38:13;4.80;;;4.27;;
34571;SDS011;20808;48.974;8.452;2022-11-20T10:40:45;4.90;;;4.23;;
34571;SDS011;20808;48.974;8.452;2022-11-20T10:43:16;6.70;;;4.53;;
34571;SDS011;20808;48.974;8.452;2022-11-20T10:45:48;8.93;;;7.23;;
34571;SDS011;20808;48.974;8.452;2022-11-20T10:48:21;8.13;;;4.27;;
34571;SDS011;20808;48.974;8.452;2022-11-20T10:56:28;11.67;;;4.53;;
34571;SDS011;20808;48.974;8.452;2022-11-20T10:59:10;40.67;;;21.63;;
34571;SDS011;20808;48.974;8.452;2022-11-20T11:01:49;25.33;;;12.80;;
34571;SDS011;20808;48.974;8.452;2022-11-20T11:04:23;12.57;;;8.13;;
34571;SDS011;20808;48.974;8.452;2022-11-20T11:07:01;4.50;;;3.60;;
34571;SDS011;20808;48.974;8.452;2022-11-20T11:09:35;8.63;;;3.37;;
34571;SDS011;20808;48.974;8.452;2022-11-20T11:12:07;3.60;;;3.00;;
34571;SDS011;20808;48.974;8.452;2022-11-20T11:14:46;5.73;;;3.50;;
34571;SDS011;20808;48.974;8.452;2022-11-20T11:17:25;5.03;;;3.47;;
34571;SDS011;20808;48.974;8.452;2022-11-20T11:19:58;5.17;;;3.63;;
34571;SDS011;20808;48.974;8.452;2022-11-20T11:22:31;9.90;;;3.23;;
34571;SDS011;20808;48.974;8.452;2022-11-20T11:24:59;4.53;;;3.20;;
34571;SDS011;20808;48.974;8.452;2022-11-20T11:27:26;7.50;;;3.70;;
34571;SDS011;20808;48.974;8.452;2022-11-20T11:30:02;7.17;;;3.80;;
34571;SDS011;20808;48.974;8.452;2022-11-20T11:32:38;9.47;;;5.00;;
34571;SDS011;20808;48.974;8.452;2022-11-20T11:35:11;5.50;;;3.03;;
34571;SDS011;20808;48.974;8.452;2022-11-20T11:37:46;8.83;;;2.80;;
34571;SDS011;20808;48.974;8.452;2022-11-20T11:40:14;4.70;;;2.60;;
34571;SDS011;20808;48.974;8.452;2022-11-20T11:42:42;4.20;;;2.60;;
34571;SDS011;20808;48.974;8.452;2022-11-20T11:45:11;5.33;;;3.20;;
34571;SDS011;20808;48.974;8.452;2022-11-20T11:47:43;8.43;;;5.20;;
34571;SDS011;20808;48.974;8.452;2022-11-20T11:50:18;9.63;;;4.20;;
34571;SDS011;20808;48.974;8.452;2022-11-20T11:52:49;3.00;;;1.80;;
34571;SDS011;20808;48.974;8.452;2022-11-20T11:55:26;4.37;;;3.23;;
34571;SDS011;20808;48.974;8.452;2022-11-20T11:57:59;4.80;;;2.33;;
34571;SDS011;20808;48.974;8.452;2022-11-20T12:00:35;5.60;;;4.40;;
34571;SDS011;20808;48.974;8.452;2022-11-20T12:03:08;2.03;;;1.43;;
34571;SDS011;20808;48.974;8.452;2022-11-20T12:05:43;2.00;;;1.70;;
34571;SDS011;20808;48.974;8.452;2022-11-20T12:08:15;3.50;;;1.80;;
34571;SDS011;20808;48.974;8.452;2022-11-20T12:10:48;6.80;;;3.33;;
34571;SDS011;20808;48.974;8.452;2022-11-20T12:13:32;3.00;;;1.93;;
34571;SDS011;20808;48.974;8.452;2022-11-20T12:16:07;2.97;;;1.90;;
34571;SDS011;20808;48.974;8.452;2022-11-20T12:18:38;3.73;;;2.27;;
34571;SDS011;20808;48.974;8.452;2022-11-20T12:21:10;4.33;;;1.97;;
34571;SDS011;20808;48.974;8.452;2022-11-20T12:23:49;3.80;;;2.50;;
34571;SDS011;20808;48.974;8.452;2022-11-20T12:26:27;5.07;;;2.93;;
34571;SDS011;20808;48.974;8.452;2022-11-20T12:29:07;9.77;;;2.10;;
34571;SDS011;20808;48.974;8.452;2022-11-20T12:31:42;6.83;;;2.00;;
34571;SDS011;20808;48.974;8.452;2022-11-20T12:34:32;5.20;;;2.00;;
34571;SDS011;20808;48.974;8.452;2022-11-20T12:37:15;12.77;;;1.77;;
34571;SDS011;20808;48.974;8.452;2022-11-20T12:39:54;7.23;;;1.63;;
34571;SDS011;20808;48.974;8.452;2022-11-20T12:42:31;3.47;;;1.50;;
34571;SDS011;20808;48.974;8.452;2022-11-20T12:45:48;1.47;;;0.83;;
34571;SDS011;20808;48.974;8.452;2022-11-20T12:48:36;5.90;;;1.47;;
34571;SDS011;20808;48.974;8.452;2022-11-20T12:51:21;4.80;;;1.37;;
34571;SDS011;20808;48.974;8.452;2022-11-20T12:54:06;2.40;;;1.70;;
34571;SDS011;20808;48.974;8.452;2022-11-20T12:56:49;2.93;;;1.20;;
34571;SDS011;20808;48.974;8.452;2022-11-20T12:59:27;4.30;;;1.63;;
34571;SDS011;20808;48.974;8.452;2022-11-20T13:02:18;5.87;;;1.50;;
34571;SDS011;20808;48.974;8.452;2022-11-20T13:05:00;2.57;;;1.60;;
34571;SDS011;20808;48.974;8.452;2022-11-20T13:07:43;2.13;;;1.30;;
34571;SDS011;20808;48.974;8.452;2022-11-20T13:10:16;3.00;;;1.50;;
34571;SDS011;20808;48.974;8.452;2022-11-20T13:12:49;2.20;;;1.37;;
34571;SDS011;20808;48.974;8.452;2022-11-20T13:15:26;4.47;;;1.83;;
34571;SDS011;20808;48.974;8.452;2022-11-20T13:18:06;4.70;;;1.30;;
34571;SDS011;20808;48.974;8.452;2022-11-20T13:20:36;3.07;;;1.20;;
34571;SDS011;20808;48.974;8.452;2022-11-20T13:23:08;4.30;;;1.40;;
34571;SDS011;20808;48.974;8.452;2022-11-20T13:25:37;3.07;;;1.70;;
34571;SDS011;20808;48.974;8.452;2022-11-20T13:30:56;2.90;;;1.30;;
34571;SDS011;20808;48.974;8.452;2022-11-20T13:33:26;2.87;;;1.23;;
34571;SDS011;20808;48.974;8.452;2022-11-20T13:35:56;2.17;;;1.10;;
34571;SDS011;20808;48.974;8.452;2022-11-20T13:38:24;2.77;;;1.60;;
34571;SDS011;20808;48.974;8.452;2022-11-20T13:40:54;7.93;;;3.13;;
34571;SDS011;20808;48.974;8.452;2022-11-20T13:43:26;2.67;;;1.63;;
34571;SDS011;20808;48.974;8.452;2022-11-20T13:46:00;2.90;;;1.40;;
34571;SDS011;20808;48.974;8.452;2022-11-20T13:48:29;2.83;;;1.40;;
34571;SDS011;20808;48.974;8.452;2022-11-20T13:51:09;2.27;;;1.00;;
34571;SDS011;20808;48.974;8.452;2022-11-20T13:53:58;4.43;;;1.40;;
34571;SDS011;20808;48.974;8.452;2022-11-20T13:56:51;3.73;;;1.57;;
34571;SDS011;20808;48.974;8.452;2022-11-20T13:59:30;2.27;;;1.20;;
34571;SDS011;20808;48.974;8.452;2022-11-20T14:02:09;3.63;;;2.00;;
34571;SDS011;20808;48.974;8.452;2022-11-20T14:04:41;3.70;;;2.17;;
34571;SDS011;20808;48.974;8.452;2022-11-20T14:07:10;2.60;;;1.47;;
34571;SDS011;20808;48.974;8.452;2022-11-20T14:09:38;2.80;;;1.37;;
34571;SDS011;20808;48.974;8.452;2022-11-20T14:12:14;3.13;;;1.90;;
34571;SDS011;20808;48.974;8.452;2022-11-20T14:14:47;3.63;;;1.30;;
34571;SDS011;20808;48.974;8.452;2022-11-20T14:17:17;5.53;;;1.50;;
34571;SDS011;20808;48.974;8.452;2022-11-20T14:19:46;4.97;;;1.50;;
34571;SDS011;20808;48.974;8.452;2022-11-20T14:22:19;3.93;;;1.40;;
34571;SDS011;20808;48.974;8.452;2022-11-20T14:24:48;2.47;;;1.30;;
34571;SDS011;20808;48.974;8.452;2022-11-20T14:27:19;4.73;;;1.40;;
34571;SDS011;20808;48.974;8.452;2022-11-20T14:29:48;3.20;;;1.20;;
34571;SDS011;20808;48.974;8.452;2022-11-20T14:32:17;6.13;;;1.60;;
34571;SDS011;20808;48.974;8.452;2022-11-20T14:34:47;4.03;;;1.37;;
34571;SDS011;20808;48.974;8.452;2022-11-20T14:37:17;1.77;;;0.97;;
34571;SDS011;20808;48.974;8.452;2022-11-20T14:39:48;3.83;;;1.30;;
34571;SDS011;20808;48.974;8.452;2022-11-20T14:42:18;2.43;;;1.13;;
34571;SDS011;20808;48.974;8.452;2022-11-20T14:44:47;5.00;;;1.30;;
34571;SDS011;20808;48.974;8.452;2022-11-20T14:47:17;3.80;;;1.47;;
34571;SDS011;20808;48.974;8.452;2022-11-20T14:49:47;2.60;;;1.63;;
34571;SDS011;20808;48.974;8.452;2022-11-20T14:52:16;1.83;;;1.20;;
34571;SDS011;20808;48.974;8.452;2022-11-20T14:54:44;5.70;;;1.87;;
34571;SDS011;20808;48.974;8.452;2022-11-20T14:57:27;3.97;;;1.33;;
34571;SDS011;20808;48.974;8.452;2022-11-20T15:00:17;3.83;;;1.40;;
34571;SDS011;20808;48.974;8.452;2022-11-20T15:02:47;4.53;;;1.37;;
34571;SDS011;20808;48.974;8.452;2022-11-20T15:05:15;2.60;;;1.30;;
34571;SDS011;20808;48.974;8.452;2022-11-20T15:07:44;3.33;;;1.80;;